sensor_id;sensor_type;location;lat;lon;timestamp;P1;durP1;ratioP1;P2;durP2;ratioP2
5137;SDS011;53959;53.626;11.410;2022-12-07T00:01:32;22.10;;;12.00;;
5137;SDS011;53959;53.626;11.410;2022-12-07T00:04:03;27.83;;;13.20;;
5137;SDS011;53959;53.626;11.410;2022-12-07T00:06:31;23.07;;;12.30;;
5137;SDS011;53959;53.626;11.410;2022-12-07T00:08:57;26.43;;;12.83;;
5137;SDS011;53959;53.626;11.410;2022-12-07T00:11:22;25.00;;;13.03;;
5137;SDS011;53959;53.626;11.410;2022-12-07T00:13:52;22.60;;;12.07;;
5137;SDS011;53959;53.626;11.410;2022-12-07T00:16:20;23.67;;;12.53;;
5137;SDS011;53959;53.626;11.410;2022-12-07T00:18:47;18.90;;;11.23;;
5137;SDS011;53959;53.626;11.410;2022-12-07T00:21:14;24.33;;;12.37;;
5137;SDS011;53959;53.626;11.410;2022-12-07T00:23:41;25.23;;;10.97;;
5137;SDS011;53959;53.626;11.410;2022-12-07T00:28:35;17.57;;;10.73;;
5137;SDS011;53959;53.626;11.410;2022-12-07T00:31:10;21.70;;;12.40;;
5137;SDS011;53959;53.626;11.410;2022-12-07T00:33:37;24.20;;;12.03;;
5137;SDS011;53959;53.626;11.410;2022-12-07T00:36:04;21.20;;;11.90;;
5137;SDS011;53959;53.626;11.410;2022-12-07T00:38:32;24.83;;;12.37;;
5137;SDS011;53959;53.626;11.410;2022-12-07T00:41:01;20.97;;;11.07;;
5137;SDS011;53959;53.626;11.410;2022-12-07T00:43:28;27.30;;;12.57;;
5137;SDS011;53959;53.626;11.410;2022-12-07T00:45:54;25.33;;;13.20;;
5137;SDS011;53959;53.626;11.410;2022-12-07T00:48:20;25.90;;;13.13;;
5137;SDS011;53959;53.626;11.410;2022-12-07T00:50:47;24.63;;;12.63;;
5137;SDS011;53959;53.626;11.410;2022-12-07T00:53:13;24.40;;;12.80;;
5137;SDS011;53959;53.626;11.410;2022-12-07T00:55:39;27.30;;;11.80;;
5137;SDS011;53959;53.626;11.410;2022-12-07T00:58:04;31.43;;;14.13;;
5137;SDS011;53959;53.626;11.410;2022-12-07T01:00:30;24.23;;;12.90;;
5137;SDS011;53959;53.626;11.410;2022-12-07T01:02:56;27.90;;;13.50;;
5137;SDS011;53959;53.626;11.410;2022-12-07T01:05:21;28.33;;;15.23;;
5137;SDS011;53959;53.626;11.410;2022-12-07T01:07:47;28.20;;;13.00;;
5137;SDS011;53959;53.626;11.410;2022-12-07T01:10:15;26.63;;;12.83;;
5137;SDS011;53959;53.626;11.410;2022-12-07T01:12:41;29.70;;;13.90;;
5137;SDS011;53959;53.626;11.410;2022-12-07T01:15:07;25.10;;;13.80;;
5137;SDS011;53959;53.626;11.410;2022-12-07T01:17:33;32.20;;;15.60;;
5137;SDS011;53959;53.626;11.410;2022-12-07T01:19:59;33.40;;;15.37;;
5137;SDS011;53959;53.626;11.410;2022-12-07T01:22:26;34.77;;;16.10;;
5137;SDS011;53959;53.626;11.410;2022-12-07T01:24:51;31.17;;;14.97;;
5137;SDS011;53959;53.626;11.410;2022-12-07T01:27:17;35.17;;;16.03;;
5137;SDS011;53959;53.626;11.410;2022-12-07T01:29:42;35.13;;;16.13;;
5137;SDS011;53959;53.626;11.410;2022-12-07T01:32:08;37.00;;;15.43;;
5137;SDS011;53959;53.626;11.410;2022-12-07T01:34:33;32.17;;;15.37;;
5137;SDS011;53959;53.626;11.410;2022-12-07T01:36:59;33.70;;;14.80;;
5137;SDS011;53959;53.626;11.410;2022-12-07T01:39:25;42.47;;;16.83;;
5137;SDS011;53959;53.626;11.410;2022-12-07T01:41:51;36.23;;;17.00;;
5137;SDS011;53959;53.626;11.410;2022-12-07T01:44:24;45.20;;;19.10;;
5137;SDS011;53959;53.626;11.410;2022-12-07T01:46:57;40.70;;;19.20;;
5137;SDS011;53959;53.626;11.410;2022-12-07T01:52:28;42.30;;;18.57;;
5137;SDS011;53959;53.626;11.410;2022-12-07T01:54:57;44.40;;;17.87;;
5137;SDS011;53959;53.626;11.410;2022-12-07T01:57:26;49.43;;;20.17;;
5137;SDS011;53959;53.626;11.410;2022-12-07T01:59:52;43.30;;;19.70;;
5137;SDS011;53959;53.626;11.410;2022-12-07T02:02:25;39.43;;;20.20;;
5137;SDS011;53959;53.626;11.410;2022-12-07T02:04:53;42.33;;;20.93;;
5137;SDS011;53959;53.626;11.410;2022-12-07T02:07:20;47.90;;;20.57;;
5137;SDS011;53959;53.626;11.410;2022-12-07T02:09:48;35.40;;;18.80;;
5137;SDS011;53959;53.626;11.410;2022-12-07T02:12:13;47.40;;;21.47;;
5137;SDS011;53959;53.626;11.410;2022-12-07T02:14:39;44.70;;;18.93;;
5137;SDS011;53959;53.626;11.410;2022-12-07T02:20:00;41.47;;;20.47;;
5137;SDS011;53959;53.626;11.410;2022-12-07T02:23:00;44.90;;;21.03;;
5137;SDS011;53959;53.626;11.410;2022-12-07T02:25:50;45.77;;;18.83;;
5137;SDS011;53959;53.626;11.410;2022-12-07T02:28:35;47.23;;;19.30;;
5137;SDS011;53959;53.626;11.410;2022-12-07T02:31:06;38.83;;;21.33;;
5137;SDS011;53959;53.626;11.410;2022-12-07T02:33:40;37.57;;;18.90;;
5137;SDS011;53959;53.626;11.410;2022-12-07T02:36:34;44.90;;;20.67;;
5137;SDS011;53959;53.626;11.410;2022-12-07T02:39:16;44.37;;;21.80;;
5137;SDS011;53959;53.626;11.410;2022-12-07T02:41:47;45.43;;;22.70;;
5137;SDS011;53959;53.626;11.410;2022-12-07T02:44:20;45.50;;;19.80;;
5137;SDS011;53959;53.626;11.410;2022-12-07T02:46:53;48.53;;;21.30;;
5137;SDS011;53959;53.626;11.410;2022-12-07T02:49:22;42.40;;;21.30;;
5137;SDS011;53959;53.626;11.410;2022-12-07T02:51:51;47.87;;;22.90;;
5137;SDS011;53959;53.626;11.410;2022-12-07T02:54:18;47.40;;;22.73;;
5137;SDS011;53959;53.626;11.410;2022-12-07T02:56:49;51.07;;;23.20;;
5137;SDS011;53959;53.626;11.410;2022-12-07T03:10:28;47.20;;;25.37;;
5137;SDS011;53959;53.626;11.410;2022-12-07T03:13:03;55.20;;;26.57;;
5137;SDS011;53959;53.626;11.410;2022-12-07T03:15:43;52.70;;;26.30;;
5137;SDS011;53959;53.626;11.410;2022-12-07T03:18:18;50.30;;;23.47;;
5137;SDS011;53959;53.626;11.410;2022-12-07T03:20:48;56.90;;;25.10;;
5137;SDS011;53959;53.626;11.410;2022-12-07T03:23:17;38.83;;;20.73;;
5137;SDS011;53959;53.626;11.410;2022-12-07T03:25:45;48.37;;;21.57;;
5137;SDS011;53959;53.626;11.410;2022-12-07T03:28:14;44.40;;;21.37;;
5137;SDS011;53959;53.626;11.410;2022-12-07T03:30:47;45.20;;;21.20;;
5137;SDS011;53959;53.626;11.410;2022-12-07T03:33:21;44.30;;;22.50;;
5137;SDS011;53959;53.626;11.410;2022-12-07T03:35:52;55.90;;;20.80;;
5137;SDS011;53959;53.626;11.410;2022-12-07T03:38:28;38.93;;;22.00;;
5137;SDS011;53959;53.626;11.410;2022-12-07T03:40:59;42.60;;;21.37;;
5137;SDS011;53959;53.626;11.410;2022-12-07T03:43:30;35.30;;;20.37;;
5137;SDS011;53959;53.626;11.410;2022-12-07T03:46:01;37.07;;;19.43;;
5137;SDS011;53959;53.626;11.410;2022-12-07T03:48:42;40.00;;;21.13;;
5137;SDS011;53959;53.626;11.410;2022-12-07T03:51:25;41.30;;;21.70;;
5137;SDS011;53959;53.626;11.410;2022-12-07T03:54:00;32.53;;;18.97;;
5137;SDS011;53959;53.626;11.410;2022-12-07T03:56:32;31.47;;;19.90;;
5137;SDS011;53959;53.626;11.410;2022-12-07T03:58:59;37.23;;;21.27;;
5137;SDS011;53959;53.626;11.410;2022-12-07T04:01:25;36.00;;;21.10;;
5137;SDS011;53959;53.626;11.410;2022-12-07T04:03:51;33.40;;;18.17;;
5137;SDS011;53959;53.626;11.410;2022-12-07T04:06:16;39.27;;;19.00;;
5137;SDS011;53959;53.626;11.410;2022-12-07T04:08:42;33.37;;;17.80;;
5137;SDS011;53959;53.626;11.410;2022-12-07T04:11:07;29.50;;;17.63;;
5137;SDS011;53959;53.626;11.410;2022-12-07T04:13:33;26.70;;;16.10;;
5137;SDS011;53959;53.626;11.410;2022-12-07T04:16:18;30.10;;;14.73;;
5137;SDS011;53959;53.626;11.410;2022-12-07T04:18:45;26.27;;;13.73;;
5137;SDS011;53959;53.626;11.410;2022-12-07T04:21:10;26.43;;;13.23;;
5137;SDS011;53959;53.626;11.410;2022-12-07T04:23:36;17.83;;;11.30;;
5137;SDS011;53959;53.626;11.410;2022-12-07T04:26:01;19.57;;;11.80;;
5137;SDS011;53959;53.626;11.410;2022-12-07T04:28:27;24.50;;;11.17;;
5137;SDS011;53959;53.626;11.410;2022-12-07T04:30:52;18.30;;;10.70;;
5137;SDS011;53959;53.626;11.410;2022-12-07T04:33:18;16.73;;;9.93;;
5137;SDS011;53959;53.626;11.410;2022-12-07T04:35:43;16.67;;;9.57;;
5137;SDS011;53959;53.626;11.410;2022-12-07T04:38:09;19.50;;;9.23;;
5137;SDS011;53959;53.626;11.410;2022-12-07T04:40:34;15.23;;;9.57;;
5137;SDS011;53959;53.626;11.410;2022-12-07T04:43:00;22.53;;;10.07;;
5137;SDS011;53959;53.626;11.410;2022-12-07T04:45:25;16.27;;;9.03;;
5137;SDS011;53959;53.626;11.410;2022-12-07T04:47:51;11.67;;;7.27;;
5137;SDS011;53959;53.626;11.410;2022-12-07T04:50:16;10.60;;;7.10;;
5137;SDS011;53959;53.626;11.410;2022-12-07T04:52:42;19.83;;;7.57;;
5137;SDS011;53959;53.626;11.410;2022-12-07T04:55:08;12.97;;;6.40;;
5137;SDS011;53959;53.626;11.410;2022-12-07T04:57:33;12.60;;;8.47;;
5137;SDS011;53959;53.626;11.410;2022-12-07T04:59:59;7.67;;;6.40;;
5137;SDS011;53959;53.626;11.410;2022-12-07T05:02:24;7.83;;;6.13;;
5137;SDS011;53959;53.626;11.410;2022-12-07T05:04:50;11.40;;;6.93;;
5137;SDS011;53959;53.626;11.410;2022-12-07T05:07:15;13.33;;;6.63;;
5137;SDS011;53959;53.626;11.410;2022-12-07T05:09:41;11.30;;;4.73;;
5137;SDS011;53959;53.626;11.410;2022-12-07T05:12:06;8.07;;;5.67;;
5137;SDS011;53959;53.626;11.410;2022-12-07T05:14:32;8.87;;;6.03;;
5137;SDS011;53959;53.626;11.410;2022-12-07T05:16:57;7.73;;;4.83;;
5137;SDS011;53959;53.626;11.410;2022-12-07T05:19:23;8.67;;;5.30;;
5137;SDS011;53959;53.626;11.410;2022-12-07T05:21:48;5.83;;;4.30;;
5137;SDS011;53959;53.626;11.410;2022-12-07T05:24:15;7.93;;;5.97;;
5137;SDS011;53959;53.626;11.410;2022-12-07T05:26:41;6.90;;;4.70;;
5137;SDS011;53959;53.626;11.410;2022-12-07T05:29:07;8.93;;;4.80;;
5137;SDS011;53959;53.626;11.410;2022-12-07T05:31:35;7.20;;;4.37;;
5137;SDS011;53959;53.626;11.410;2022-12-07T05:34:01;7.53;;;4.30;;
5137;SDS011;53959;53.626;11.410;2022-12-07T05:36:26;9.73;;;4.50;;
5137;SDS011;53959;53.626;11.410;2022-12-07T05:38:53;6.57;;;4.97;;
5137;SDS011;53959;53.626;11.410;2022-12-07T05:41:19;6.57;;;5.20;;
5137;SDS011;53959;53.626;11.410;2022-12-07T05:44:03;5.50;;;4.90;;
5137;SDS011;53959;53.626;11.410;2022-12-07T05:46:30;10.07;;;5.50;;
5137;SDS011;53959;53.626;11.410;2022-12-07T05:48:56;8.30;;;4.73;;
5137;SDS011;53959;53.626;11.410;2022-12-07T05:51:21;12.63;;;5.53;;
5137;SDS011;53959;53.626;11.410;2022-12-07T05:53:47;11.13;;;5.80;;
5137;SDS011;53959;53.626;11.410;2022-12-07T05:56:12;11.60;;;6.80;;
5137;SDS011;53959;53.626;11.410;2022-12-07T05:58:38;9.07;;;5.40;;
5137;SDS011;53959;53.626;11.410;2022-12-07T06:01:22;17.03;;;6.53;;
5137;SDS011;53959;53.626;11.410;2022-12-07T06:03:47;19.33;;;6.13;;
5137;SDS011;53959;53.626;11.410;2022-12-07T06:06:13;7.57;;;5.50;;
5137;SDS011;53959;53.626;11.410;2022-12-07T06:08:39;10.13;;;6.27;;
5137;SDS011;53959;53.626;11.410;2022-12-07T06:11:04;9.30;;;6.23;;
5137;SDS011;53959;53.626;11.410;2022-12-07T06:13:48;7.23;;;5.40;;
5137;SDS011;53959;53.626;11.410;2022-12-07T06:16:14;6.77;;;5.23;;
5137;SDS011;53959;53.626;11.410;2022-12-07T06:18:39;8.23;;;5.97;;
5137;SDS011;53959;53.626;11.410;2022-12-07T06:21:05;5.53;;;4.67;;
5137;SDS011;53959;53.626;11.410;2022-12-07T06:23:30;6.53;;;4.97;;
5137;SDS011;53959;53.626;11.410;2022-12-07T06:25:56;7.10;;;5.17;;
5137;SDS011;53959;53.626;11.410;2022-12-07T06:28:21;16.77;;;5.10;;
5137;SDS011;53959;53.626;11.410;2022-12-07T06:30:47;10.57;;;6.13;;
5137;SDS011;53959;53.626;11.410;2022-12-07T06:33:12;7.60;;;5.40;;
5137;SDS011;53959;53.626;11.410;2022-12-07T06:35:38;9.23;;;5.63;;
5137;SDS011;53959;53.626;11.410;2022-12-07T06:38:03;7.57;;;5.30;;
5137;SDS011;53959;53.626;11.410;2022-12-07T06:40:29;6.20;;;5.27;;
5137;SDS011;53959;53.626;11.410;2022-12-07T06:42:54;7.40;;;5.73;;
5137;SDS011;53959;53.626;11.410;2022-12-07T06:45:20;13.03;;;5.80;;
5137;SDS011;53959;53.626;11.410;2022-12-07T06:47:45;18.93;;;7.50;;
5137;SDS011;53959;53.626;11.410;2022-12-07T06:50:11;11.03;;;6.90;;
5137;SDS011;53959;53.626;11.410;2022-12-07T06:52:36;10.37;;;6.40;;
5137;SDS011;53959;53.626;11.410;2022-12-07T06:55:02;10.33;;;7.50;;
5137;SDS011;53959;53.626;11.410;2022-12-07T06:57:27;10.63;;;7.43;;
5137;SDS011;53959;53.626;11.410;2022-12-07T06:59:53;11.27;;;7.00;;
5137;SDS011;53959;53.626;11.410;2022-12-07T07:02:18;7.67;;;6.10;;
5137;SDS011;53959;53.626;11.410;2022-12-07T07:04:44;8.37;;;5.83;;
5137;SDS011;53959;53.626;11.410;2022-12-07T07:07:09;7.23;;;6.13;;
5137;SDS011;53959;53.626;11.410;2022-12-07T07:09:35;9.67;;;6.70;;
5137;SDS011;53959;53.626;11.410;2022-12-07T07:12:00;10.70;;;7.33;;
5137;SDS011;53959;53.626;11.410;2022-12-07T07:14:26;10.70;;;7.60;;
5137;SDS011;53959;53.626;11.410;2022-12-07T07:16:52;9.90;;;7.20;;
5137;SDS011;53959;53.626;11.410;2022-12-07T07:19:17;11.27;;;8.47;;
5137;SDS011;53959;53.626;11.410;2022-12-07T07:21:43;8.87;;;6.73;;
5137;SDS011;53959;53.626;11.410;2022-12-07T07:24:09;13.57;;;8.60;;
5137;SDS011;53959;53.626;11.410;2022-12-07T07:26:35;11.70;;;7.10;;
5137;SDS011;53959;53.626;11.410;2022-12-07T07:29:00;10.83;;;7.43;;
5137;SDS011;53959;53.626;11.410;2022-12-07T07:31:26;10.47;;;6.70;;
5137;SDS011;53959;53.626;11.410;2022-12-07T07:33:51;9.70;;;7.63;;
5137;SDS011;53959;53.626;11.410;2022-12-07T07:36:17;12.00;;;8.77;;
5137;SDS011;53959;53.626;11.410;2022-12-07T07:38:43;10.23;;;7.10;;
5137;SDS011;53959;53.626;11.410;2022-12-07T07:41:08;9.20;;;7.17;;
5137;SDS011;53959;53.626;11.410;2022-12-07T07:43:34;12.80;;;8.17;;
5137;SDS011;53959;53.626;11.410;2022-12-07T07:45:59;11.00;;;7.37;;
5137;SDS011;53959;53.626;11.410;2022-12-07T07:48:25;12.10;;;8.87;;
5137;SDS011;53959;53.626;11.410;2022-12-07T07:50:50;11.57;;;8.77;;
5137;SDS011;53959;53.626;11.410;2022-12-07T07:53:16;10.43;;;7.43;;
5137;SDS011;53959;53.626;11.410;2022-12-07T07:55:49;13.23;;;8.20;;
5137;SDS011;53959;53.626;11.410;2022-12-07T07:58:16;11.60;;;8.30;;
5137;SDS011;53959;53.626;11.410;2022-12-07T08:00:41;13.47;;;7.40;;
5137;SDS011;53959;53.626;11.410;2022-12-07T08:03:07;12.77;;;8.83;;
5137;SDS011;53959;53.626;11.410;2022-12-07T08:05:32;16.30;;;8.13;;
5137;SDS011;53959;53.626;11.410;2022-12-07T08:07:58;12.63;;;7.43;;
5137;SDS011;53959;53.626;11.410;2022-12-07T08:10:24;19.53;;;9.33;;
5137;SDS011;53959;53.626;11.410;2022-12-07T08:12:49;13.03;;;8.23;;
5137;SDS011;53959;53.626;11.410;2022-12-07T08:15:36;11.97;;;8.47;;
5137;SDS011;53959;53.626;11.410;2022-12-07T08:18:02;17.13;;;10.50;;
5137;SDS011;53959;53.626;11.410;2022-12-07T08:20:29;15.27;;;10.20;;
5137;SDS011;53959;53.626;11.410;2022-12-07T08:22:55;16.33;;;9.30;;
5137;SDS011;53959;53.626;11.410;2022-12-07T08:25:21;13.73;;;9.20;;
5137;SDS011;53959;53.626;11.410;2022-12-07T08:27:47;12.83;;;8.27;;
5137;SDS011;53959;53.626;11.410;2022-12-07T08:30:13;9.70;;;6.80;;
5137;SDS011;53959;53.626;11.410;2022-12-07T08:32:39;9.23;;;6.23;;
5137;SDS011;53959;53.626;11.410;2022-12-07T08:35:05;10.20;;;6.67;;
5137;SDS011;53959;53.626;11.410;2022-12-07T08:37:31;11.80;;;6.97;;
5137;SDS011;53959;53.626;11.410;2022-12-07T08:39:57;12.77;;;8.50;;
5137;SDS011;53959;53.626;11.410;2022-12-07T08:42:23;10.63;;;6.70;;
5137;SDS011;53959;53.626;11.410;2022-12-07T08:44:52;10.33;;;6.30;;
5137;SDS011;53959;53.626;11.410;2022-12-07T08:47:18;9.90;;;6.70;;
5137;SDS011;53959;53.626;11.410;2022-12-07T08:49:45;8.23;;;5.97;;
5137;SDS011;53959;53.626;11.410;2022-12-07T08:52:13;14.40;;;5.67;;
5137;SDS011;53959;53.626;11.410;2022-12-07T08:54:38;10.70;;;5.90;;
5137;SDS011;53959;53.626;11.410;2022-12-07T08:57:05;13.33;;;6.33;;
5137;SDS011;53959;53.626;11.410;2022-12-07T08:59:32;6.23;;;5.20;;
5137;SDS011;53959;53.626;11.410;2022-12-07T09:02:00;7.37;;;5.90;;
5137;SDS011;53959;53.626;11.410;2022-12-07T09:04:26;9.33;;;6.23;;
5137;SDS011;53959;53.626;11.410;2022-12-07T09:06:53;11.83;;;5.57;;
5137;SDS011;53959;53.626;11.410;2022-12-07T09:09:19;9.60;;;6.20;;
5137;SDS011;53959;53.626;11.410;2022-12-07T09:11:45;10.17;;;5.83;;
5137;SDS011;53959;53.626;11.410;2022-12-07T09:14:11;10.07;;;5.80;;
5137;SDS011;53959;53.626;11.410;2022-12-07T09:16:37;6.57;;;4.83;;
5137;SDS011;53959;53.626;11.410;2022-12-07T09:19:03;10.60;;;5.77;;
5137;SDS011;53959;53.626;11.410;2022-12-07T09:21:28;7.23;;;5.67;;
5137;SDS011;53959;53.626;11.410;2022-12-07T09:23:54;11.07;;;5.50;;
5137;SDS011;53959;53.626;11.410;2022-12-07T09:26:19;17.20;;;8.73;;
5137;SDS011;53959;53.626;11.410;2022-12-07T09:28:45;21.13;;;5.50;;
5137;SDS011;53959;53.626;11.410;2022-12-07T09:31:10;11.10;;;5.43;;
5137;SDS011;53959;53.626;11.410;2022-12-07T09:33:36;11.50;;;6.70;;
5137;SDS011;53959;53.626;11.410;2022-12-07T09:36:02;8.57;;;5.80;;
5137;SDS011;53959;53.626;11.410;2022-12-07T09:38:28;9.33;;;5.33;;
5137;SDS011;53959;53.626;11.410;2022-12-07T09:40:54;11.67;;;6.67;;
5137;SDS011;53959;53.626;11.410;2022-12-07T09:43:20;9.40;;;5.00;;
5137;SDS011;53959;53.626;11.410;2022-12-07T09:45:49;12.53;;;6.37;;
5137;SDS011;53959;53.626;11.410;2022-12-07T09:48:19;8.03;;;6.03;;
5137;SDS011;53959;53.626;11.410;2022-12-07T09:50:54;11.13;;;5.70;;
5137;SDS011;53959;53.626;11.410;2022-12-07T09:53:29;20.50;;;7.97;;
5137;SDS011;53959;53.626;11.410;2022-12-07T09:56:00;10.23;;;5.87;;
5137;SDS011;53959;53.626;11.410;2022-12-07T09:58:27;5.33;;;4.80;;
5137;SDS011;53959;53.626;11.410;2022-12-07T10:01:14;10.63;;;5.30;;
5137;SDS011;53959;53.626;11.410;2022-12-07T10:03:51;10.87;;;4.13;;
5137;SDS011;53959;53.626;11.410;2022-12-07T10:06:19;4.60;;;3.80;;
5137;SDS011;53959;53.626;11.410;2022-12-07T10:08:45;16.23;;;3.87;;
5137;SDS011;53959;53.626;11.410;2022-12-07T10:11:11;10.60;;;5.20;;
5137;SDS011;53959;53.626;11.410;2022-12-07T10:13:47;11.23;;;3.70;;
5137;SDS011;53959;53.626;11.410;2022-12-07T10:18:53;13.10;;;3.67;;
5137;SDS011;53959;53.626;11.410;2022-12-07T10:24:02;9.53;;;5.47;;
5137;SDS011;53959;53.626;11.410;2022-12-07T10:28:54;15.07;;;4.20;;
5137;SDS011;53959;53.626;11.410;2022-12-07T10:31:22;4.73;;;3.73;;
5137;SDS011;53959;53.626;11.410;2022-12-07T10:33:52;8.60;;;3.67;;
5137;SDS011;53959;53.626;11.410;2022-12-07T10:36:21;8.53;;;3.43;;
5137;SDS011;53959;53.626;11.410;2022-12-07T10:38:53;8.13;;;2.63;;
5137;SDS011;53959;53.626;11.410;2022-12-07T10:41:28;5.80;;;2.70;;
5137;SDS011;53959;53.626;11.410;2022-12-07T10:43:55;5.33;;;2.80;;
5137;SDS011;53959;53.626;11.410;2022-12-07T10:49:22;4.40;;;2.60;;
5137;SDS011;53959;53.626;11.410;2022-12-07T10:52:00;16.60;;;3.33;;
5137;SDS011;53959;53.626;11.410;2022-12-07T10:54:52;15.70;;;3.10;;
5137;SDS011;53959;53.626;11.410;2022-12-07T10:57:53;4.07;;;2.60;;
5137;SDS011;53959;53.626;11.410;2022-12-07T11:00:45;3.47;;;2.13;;
5137;SDS011;53959;53.626;11.410;2022-12-07T11:14:58;6.63;;;2.20;;
5137;SDS011;53959;53.626;11.410;2022-12-07T11:17:35;5.40;;;2.03;;
5137;SDS011;53959;53.626;11.410;2022-12-07T11:20:36;14.80;;;2.30;;
5137;SDS011;53959;53.626;11.410;2022-12-07T11:26:07;6.83;;;2.80;;
5137;SDS011;53959;53.626;11.410;2022-12-07T11:37:13;10.67;;;2.97;;
5137;SDS011;53959;53.626;11.410;2022-12-07T11:39:48;4.27;;;1.40;;
5137;SDS011;53959;53.626;11.410;2022-12-07T11:42:21;3.37;;;1.50;;
5137;SDS011;53959;53.626;11.410;2022-12-07T11:45:04;6.60;;;1.60;;
5137;SDS011;53959;53.626;11.410;2022-12-07T11:47:54;3.83;;;1.43;;
5137;SDS011;53959;53.626;11.410;2022-12-07T11:50:40;10.33;;;1.77;;
5137;SDS011;53959;53.626;11.410;2022-12-07T11:56:43;2.17;;;1.47;;
5137;SDS011;53959;53.626;11.410;2022-12-07T12:06:35;3.63;;;1.13;;
5137;SDS011;53959;53.626;11.410;2022-12-07T12:11:45;4.43;;;1.37;;
5137;SDS011;53959;53.626;11.410;2022-12-07T12:15:20;6.63;;;1.40;;
5137;SDS011;53959;53.626;11.410;2022-12-07T12:25:52;9.70;;;1.67;;
5137;SDS011;53959;53.626;11.410;2022-12-07T12:28:23;4.87;;;1.13;;
5137;SDS011;53959;53.626;11.410;2022-12-07T12:31:15;4.20;;;1.43;;
5137;SDS011;53959;53.626;11.410;2022-12-07T12:33:48;8.20;;;1.37;;
5137;SDS011;53959;53.626;11.410;2022-12-07T12:37:07;10.33;;;1.93;;
5137;SDS011;53959;53.626;11.410;2022-12-07T12:46:59;12.20;;;1.80;;
5137;SDS011;53959;53.626;11.410;2022-12-07T12:49:37;7.73;;;1.30;;
5137;SDS011;53959;53.626;11.410;2022-12-07T12:54:39;5.80;;;1.17;;
5137;SDS011;53959;53.626;11.410;2022-12-07T12:57:27;10.10;;;2.10;;
5137;SDS011;53959;53.626;11.410;2022-12-07T13:02:29;7.73;;;1.40;;
5137;SDS011;53959;53.626;11.410;2022-12-07T13:20:57;10.73;;;2.07;;
5137;SDS011;53959;53.626;11.410;2022-12-07T13:31:36;10.73;;;1.40;;
5137;SDS011;53959;53.626;11.410;2022-12-07T13:34:35;4.50;;;1.00;;
5137;SDS011;53959;53.626;11.410;2022-12-07T13:39:46;6.73;;;1.07;;
5137;SDS011;53959;53.626;11.410;2022-12-07T13:42:19;5.13;;;1.30;;
5137;SDS011;53959;53.626;11.410;2022-12-07T13:44:55;2.30;;;1.20;;
5137;SDS011;53959;53.626;11.410;2022-12-07T13:47:26;2.33;;;0.70;;
5137;SDS011;53959;53.626;11.410;2022-12-07T13:50:24;5.03;;;0.80;;
5137;SDS011;53959;53.626;11.410;2022-12-07T13:52:56;9.33;;;1.40;;
5137;SDS011;53959;53.626;11.410;2022-12-07T13:55:22;3.53;;;0.73;;
5137;SDS011;53959;53.626;11.410;2022-12-07T13:57:49;1.90;;;1.20;;
5137;SDS011;53959;53.626;11.410;2022-12-07T14:00:23;3.33;;;1.30;;
5137;SDS011;53959;53.626;11.410;2022-12-07T14:03:02;3.30;;;1.13;;
5137;SDS011;53959;53.626;11.410;2022-12-07T14:05:33;4.43;;;1.23;;
5137;SDS011;53959;53.626;11.410;2022-12-07T14:08:04;14.17;;;6.30;;
5137;SDS011;53959;53.626;11.410;2022-12-07T14:13:31;2.30;;;1.13;;
5137;SDS011;53959;53.626;11.410;2022-12-07T14:15:57;1.93;;;0.93;;
5137;SDS011;53959;53.626;11.410;2022-12-07T14:18:30;2.50;;;0.90;;
5137;SDS011;53959;53.626;11.410;2022-12-07T14:21:05;3.70;;;1.00;;
5137;SDS011;53959;53.626;11.410;2022-12-07T14:23:39;6.60;;;1.53;;
5137;SDS011;53959;53.626;11.410;2022-12-07T14:26:12;4.40;;;1.10;;
5137;SDS011;53959;53.626;11.410;2022-12-07T14:28:40;4.57;;;1.00;;
5137;SDS011;53959;53.626;11.410;2022-12-07T14:31:10;9.03;;;1.13;;
5137;SDS011;53959;53.626;11.410;2022-12-07T14:33:41;1.80;;;0.97;;
5137;SDS011;53959;53.626;11.410;2022-12-07T14:36:11;5.50;;;1.10;;
5137;SDS011;53959;53.626;11.410;2022-12-07T14:38:38;3.10;;;0.90;;
5137;SDS011;53959;53.626;11.410;2022-12-07T14:41:04;6.10;;;0.83;;
5137;SDS011;53959;53.626;11.410;2022-12-07T14:43:56;2.83;;;1.60;;
5137;SDS011;53959;53.626;11.410;2022-12-07T14:46:22;4.10;;;1.40;;
5137;SDS011;53959;53.626;11.410;2022-12-07T14:48:47;2.50;;;1.20;;
5137;SDS011;53959;53.626;11.410;2022-12-07T14:51:13;6.77;;;1.20;;
5137;SDS011;53959;53.626;11.410;2022-12-07T14:53:39;4.10;;;1.77;;
5137;SDS011;53959;53.626;11.410;2022-12-07T14:56:07;4.47;;;1.17;;
5137;SDS011;53959;53.626;11.410;2022-12-07T14:58:33;7.80;;;1.43;;
5137;SDS011;53959;53.626;11.410;2022-12-07T15:00:59;7.90;;;0.90;;
5137;SDS011;53959;53.626;11.410;2022-12-07T15:03:25;10.03;;;1.50;;
5137;SDS011;53959;53.626;11.410;2022-12-07T15:05:51;5.03;;;1.43;;
5137;SDS011;53959;53.626;11.410;2022-12-07T15:08:16;3.50;;;1.63;;
5137;SDS011;53959;53.626;11.410;2022-12-07T15:10:42;5.87;;;1.50;;
5137;SDS011;53959;53.626;11.410;2022-12-07T15:13:08;1.83;;;1.23;;
5137;SDS011;53959;53.626;11.410;2022-12-07T15:15:53;2.17;;;0.93;;
5137;SDS011;53959;53.626;11.410;2022-12-07T15:18:20;9.63;;;1.27;;
5137;SDS011;53959;53.626;11.410;2022-12-07T15:20:47;4.00;;;1.37;;
5137;SDS011;53959;53.626;11.410;2022-12-07T15:23:12;3.40;;;1.47;;
5137;SDS011;53959;53.626;11.410;2022-12-07T15:25:42;4.63;;;1.23;;
5137;SDS011;53959;53.626;11.410;2022-12-07T15:28:08;4.97;;;1.23;;
5137;SDS011;53959;53.626;11.410;2022-12-07T15:30:34;2.00;;;1.23;;
5137;SDS011;53959;53.626;11.410;2022-12-07T15:33:01;2.90;;;1.30;;
5137;SDS011;53959;53.626;11.410;2022-12-07T15:35:27;5.70;;;1.43;;
5137;SDS011;53959;53.626;11.410;2022-12-07T15:37:52;7.37;;;1.50;;
5137;SDS011;53959;53.626;11.410;2022-12-07T15:40:18;4.70;;;1.63;;
5137;SDS011;53959;53.626;11.410;2022-12-07T15:42:43;4.10;;;0.90;;
5137;SDS011;53959;53.626;11.410;2022-12-07T15:45:09;4.00;;;1.50;;
5137;SDS011;53959;53.626;11.410;2022-12-07T15:47:38;1.47;;;1.00;;
5137;SDS011;53959;53.626;11.410;2022-12-07T15:50:06;2.07;;;1.37;;
5137;SDS011;53959;53.626;11.410;2022-12-07T15:52:34;2.90;;;1.07;;
5137;SDS011;53959;53.626;11.410;2022-12-07T15:55:00;5.10;;;1.30;;
5137;SDS011;53959;53.626;11.410;2022-12-07T15:57:28;3.17;;;1.43;;
5137;SDS011;53959;53.626;11.410;2022-12-07T15:59:57;4.50;;;1.33;;
5137;SDS011;53959;53.626;11.410;2022-12-07T16:02:23;1.90;;;1.23;;
5137;SDS011;53959;53.626;11.410;2022-12-07T16:04:49;1.33;;;1.23;;
5137;SDS011;53959;53.626;11.410;2022-12-07T16:07:15;7.20;;;1.73;;
5137;SDS011;53959;53.626;11.410;2022-12-07T16:09:42;6.17;;;1.70;;
5137;SDS011;53959;53.626;11.410;2022-12-07T16:12:08;2.90;;;1.40;;
5137;SDS011;53959;53.626;11.410;2022-12-07T16:14:34;2.40;;;1.40;;
5137;SDS011;53959;53.626;11.410;2022-12-07T16:16:59;2.20;;;1.40;;
5137;SDS011;53959;53.626;11.410;2022-12-07T16:19:25;4.50;;;2.57;;
5137;SDS011;53959;53.626;11.410;2022-12-07T16:21:51;5.33;;;2.10;;
5137;SDS011;53959;53.626;11.410;2022-12-07T16:24:16;2.97;;;2.03;;
5137;SDS011;53959;53.626;11.410;2022-12-07T16:26:42;2.00;;;1.50;;
5137;SDS011;53959;53.626;11.410;2022-12-07T16:29:11;2.90;;;1.57;;
5137;SDS011;53959;53.626;11.410;2022-12-07T16:31:38;6.43;;;1.70;;
5137;SDS011;53959;53.626;11.410;2022-12-07T16:34:04;3.40;;;1.30;;
5137;SDS011;53959;53.626;11.410;2022-12-07T16:36:29;3.40;;;2.00;;
5137;SDS011;53959;53.626;11.410;2022-12-07T16:38:55;2.00;;;1.77;;
5137;SDS011;53959;53.626;11.410;2022-12-07T16:41:22;6.43;;;2.20;;
5137;SDS011;53959;53.626;11.410;2022-12-07T16:43:48;3.50;;;1.80;;
5137;SDS011;53959;53.626;11.410;2022-12-07T16:46:13;1.90;;;1.10;;